Strona główna
METAR-TAF:

METAR-TAF

Lotnisko :

Reims, Francja

Szerokość geograficzna: 49-12-31N, Długość geograficzna: 004-09-24E, wysokość: 95 m

Aktualna obserwacja pogody

Raport powstał 38 minut temu, godzina 19:00 UTC
Wiatr 12 kt od zachodnio-południowy zachód, zmienny między południowo-południowy zachód i zachód
Temperatura 9°C
Wilgotność 81%
Ciśnienie 1006 hPa
Widzialność 10 km lub więcej
Przerywane chmury na wysokości 4500 ft
Przerywane chmury na wysokości 6000 ft
Przerywane chmury na wysokości 7000 ft

METAR: LFQA 081900Z AUTO 24012KT 210V270 9999 BKN045 BKN060 BKN070 09/06 Q1006

czas: 20:38 (19:38 UTC)


TAF: brakujący

Obserwacja i prognoza pogody dla ponad 4000 lotnisk (raport METAR i TAF).

Dostępne stacje oznaczono żółtymi i czerwonymi punktami na mapie.

Najedź kursorem aby zobaczyć nazwę stacji.

Kliknij aby zobaczyć obserwacje i prognozy pogody.

Aby zmienić mapę: kliknij na zielony przycisk z czarnym krzyżykiem, aby powiększyć; na zielony przycisk z myślnikiem, aby pomniejszyć; na zielone strzałki, aby przejść do map sąsiednich.


METAR-TAF: